sensor_id;sensor_type;location;lat;lon;timestamp;pressure;altitude;pressure_sealevel;temperature;humidity
41062;BME280;26812;42.662;23.352;2023-08-30T00:00:54;94011.34;;;21.51;80.33
41062;BME280;26812;42.662;23.352;2023-08-30T00:03:19;94022.78;;;21.43;81.17
41062;BME280;26812;42.662;23.352;2023-08-30T00:05:45;94024.84;;;21.31;82.12
41062;BME280;26812;42.662;23.352;2023-08-30T00:08:10;94022.00;;;21.42;82.21
41062;BME280;26812;42.662;23.352;2023-08-30T00:10:36;94008.00;;;21.33;81.12
41062;BME280;26812;42.662;23.352;2023-08-30T00:13:03;94031.59;;;21.61;79.80
41062;BME280;26812;42.662;23.352;2023-08-30T00:15:28;94027.09;;;21.44;80.55
41062;BME280;26812;42.662;23.352;2023-08-30T00:17:54;93995.78;;;21.45;80.21
41062;BME280;26812;42.662;23.352;2023-08-30T00:20:20;94026.44;;;22.00;77.59
41062;BME280;26812;42.662;23.352;2023-08-30T00:22:46;94019.00;;;21.67;79.25
41062;BME280;26812;42.662;23.352;2023-08-30T00:25:12;94022.56;;;21.98;76.20
41062;BME280;26812;42.662;23.352;2023-08-30T00:27:37;94011.88;;;21.77;74.91
41062;BME280;26812;42.662;23.352;2023-08-30T00:30:03;94012.47;;;21.57;74.83
41062;BME280;26812;42.662;23.352;2023-08-30T00:32:29;94019.91;;;21.57;75.13
41062;BME280;26812;42.662;23.352;2023-08-30T00:34:54;94001.00;;;21.66;74.59
41062;BME280;26812;42.662;23.352;2023-08-30T00:37:20;94007.31;;;21.63;73.83
41062;BME280;26812;42.662;23.352;2023-08-30T00:39:45;94003.66;;;21.39;75.43
41062;BME280;26812;42.662;23.352;2023-08-30T00:42:10;94011.53;;;21.33;73.26
41062;BME280;26812;42.662;23.352;2023-08-30T00:44:36;94013.28;;;21.09;74.40
41062;BME280;26812;42.662;23.352;2023-08-30T00:47:02;94020.50;;;20.93;74.52
41062;BME280;26812;42.662;23.352;2023-08-30T00:49:32;94037.97;;;21.06;73.88
41062;BME280;26812;42.662;23.352;2023-08-30T00:52:02;94027.22;;;20.85;73.62
41062;BME280;26812;42.662;23.352;2023-08-30T00:54:30;94012.50;;;20.64;74.91
41062;BME280;26812;42.662;23.352;2023-08-30T00:56:56;94014.75;;;20.76;75.19
41062;BME280;26812;42.662;23.352;2023-08-30T00:59:22;94013.16;;;20.83;75.91
41062;BME280;26812;42.662;23.352;2023-08-30T01:01:48;94009.28;;;20.76;74.87
41062;BME280;26812;42.662;23.352;2023-08-30T01:04:14;94000.28;;;20.76;74.34
41062;BME280;26812;42.662;23.352;2023-08-30T01:06:39;94042.59;;;20.64;75.23
41062;BME280;26812;42.662;23.352;2023-08-30T01:09:05;94052.56;;;20.92;75.02
41062;BME280;26812;42.662;23.352;2023-08-30T01:14:24;94056.88;;;20.90;75.36
41062;BME280;26812;42.662;23.352;2023-08-30T01:16:51;94054.41;;;21.06;74.92
41062;BME280;26812;42.662;23.352;2023-08-30T01:27:12;94064.03;;;21.28;70.56
41062;BME280;26812;42.662;23.352;2023-08-30T01:29:41;94061.94;;;21.39;72.35
41062;BME280;26812;42.662;23.352;2023-08-30T01:32:09;94052.25;;;21.31;72.35
41062;BME280;26812;42.662;23.352;2023-08-30T01:34:36;94048.94;;;21.51;70.90
41062;BME280;26812;42.662;23.352;2023-08-30T01:37:03;94044.03;;;21.31;71.51
41062;BME280;26812;42.662;23.352;2023-08-30T01:39:30;94048.34;;;21.32;71.09
41062;BME280;26812;42.662;23.352;2023-08-30T01:41:57;94059.44;;;21.15;71.24
41062;BME280;26812;42.662;23.352;2023-08-30T01:44:27;94051.22;;;20.63;72.94
41062;BME280;26812;42.662;23.352;2023-08-30T01:46:54;94059.53;;;20.45;73.27
41062;BME280;26812;42.662;23.352;2023-08-30T01:49:21;94050.13;;;20.53;72.73
41062;BME280;26812;42.662;23.352;2023-08-30T01:51:47;94032.34;;;20.75;72.63
41062;BME280;26812;42.662;23.352;2023-08-30T01:54:17;94051.06;;;20.81;72.35
41062;BME280;26812;42.662;23.352;2023-08-30T01:56:43;94052.00;;;20.63;73.29
41062;BME280;26812;42.662;23.352;2023-08-30T01:59:09;94047.56;;;20.84;72.93
41062;BME280;26812;42.662;23.352;2023-08-30T02:01:34;94054.09;;;20.97;72.12
41062;BME280;26812;42.662;23.352;2023-08-30T02:04:00;94047.81;;;21.00;72.04
41062;BME280;26812;42.662;23.352;2023-08-30T02:09:24;94046.38;;;21.33;68.09
41062;BME280;26812;42.662;23.352;2023-08-30T02:11:52;94036.63;;;21.28;67.89
41062;BME280;26812;42.662;23.352;2023-08-30T02:14:20;94048.09;;;21.57;69.04
41062;BME280;26812;42.662;23.352;2023-08-30T02:16:46;94046.81;;;21.28;70.26
41062;BME280;26812;42.662;23.352;2023-08-30T02:19:12;94037.50;;;21.18;71.02
41062;BME280;26812;42.662;23.352;2023-08-30T02:21:47;94044.03;;;21.31;70.87
41062;BME280;26812;42.662;23.352;2023-08-30T02:24:14;94045.09;;;21.45;69.70
41062;BME280;26812;42.662;23.352;2023-08-30T02:26:39;94020.47;;;20.96;71.65
41062;BME280;26812;42.662;23.352;2023-08-30T02:29:05;94026.19;;;21.13;70.60
41062;BME280;26812;42.662;23.352;2023-08-30T02:31:30;94010.50;;;21.17;69.48
41062;BME280;26812;42.662;23.352;2023-08-30T02:33:55;94031.31;;;21.07;70.66
41062;BME280;26812;42.662;23.352;2023-08-30T02:36:21;94017.69;;;21.00;70.21
41062;BME280;26812;42.662;23.352;2023-08-30T02:38:46;94027.44;;;21.01;70.24
41062;BME280;26812;42.662;23.352;2023-08-30T02:41:11;94037.31;;;20.91;70.40
41062;BME280;26812;42.662;23.352;2023-08-30T02:43:37;94039.81;;;20.71;70.55
41062;BME280;26812;42.662;23.352;2023-08-30T02:46:03;94031.63;;;20.68;71.63
41062;BME280;26812;42.662;23.352;2023-08-30T02:48:29;94014.50;;;20.57;71.98
41062;BME280;26812;42.662;23.352;2023-08-30T02:50:55;94026.94;;;20.68;71.38
41062;BME280;26812;42.662;23.352;2023-08-30T02:53:20;94021.16;;;20.56;71.35
41062;BME280;26812;42.662;23.352;2023-08-30T02:55:47;94021.66;;;20.40;71.87
41062;BME280;26812;42.662;23.352;2023-08-30T02:58:13;94020.13;;;20.32;72.81
41062;BME280;26812;42.662;23.352;2023-08-30T03:00:38;94015.81;;;20.31;72.30
41062;BME280;26812;42.662;23.352;2023-08-30T03:03:04;94008.38;;;20.35;72.07
41062;BME280;26812;42.662;23.352;2023-08-30T03:05:29;94020.03;;;20.46;71.17
41062;BME280;26812;42.662;23.352;2023-08-30T03:07:54;94015.88;;;20.79;70.69
41062;BME280;26812;42.662;23.352;2023-08-30T03:10:20;94026.81;;;20.86;70.10
41062;BME280;26812;42.662;23.352;2023-08-30T03:12:45;94037.16;;;20.61;72.72
41062;BME280;26812;42.662;23.352;2023-08-30T03:15:11;94018.63;;;20.79;72.54
41062;BME280;26812;42.662;23.352;2023-08-30T03:17:36;94013.19;;;20.75;72.93
41062;BME280;26812;42.662;23.352;2023-08-30T03:20:02;94029.88;;;20.92;71.76
41062;BME280;26812;42.662;23.352;2023-08-30T03:22:29;93998.19;;;20.42;73.06
41062;BME280;26812;42.662;23.352;2023-08-30T03:24:55;94030.19;;;20.45;73.86
41062;BME280;26812;42.662;23.352;2023-08-30T03:27:21;94014.00;;;20.06;74.92
41062;BME280;26812;42.662;23.352;2023-08-30T03:29:46;94020.84;;;20.39;74.58
41062;BME280;26812;42.662;23.352;2023-08-30T03:32:15;94012.63;;;20.43;73.63
41062;BME280;26812;42.662;23.352;2023-08-30T03:34:44;94006.88;;;20.20;71.86
41062;BME280;26812;42.662;23.352;2023-08-30T03:37:09;94008.84;;;20.19;72.89
41062;BME280;26812;42.662;23.352;2023-08-30T03:39:35;94006.06;;;20.30;73.63
41062;BME280;26812;42.662;23.352;2023-08-30T03:42:00;94002.09;;;20.38;74.54
41062;BME280;26812;42.662;23.352;2023-08-30T03:44:26;94018.16;;;20.32;75.09
41062;BME280;26812;42.662;23.352;2023-08-30T03:46:51;94002.41;;;20.54;73.95
41062;BME280;26812;42.662;23.352;2023-08-30T03:49:23;93997.34;;;20.49;74.14
41062;BME280;26812;42.662;23.352;2023-08-30T03:51:49;93998.13;;;20.50;74.48
41062;BME280;26812;42.662;23.352;2023-08-30T03:54:14;94004.38;;;20.50;75.12
41062;BME280;26812;42.662;23.352;2023-08-30T03:56:42;94000.47;;;20.55;75.16
41062;BME280;26812;42.662;23.352;2023-08-30T03:59:07;94030.13;;;20.60;75.38
41062;BME280;26812;42.662;23.352;2023-08-30T04:01:33;94033.91;;;20.76;74.77
41062;BME280;26812;42.662;23.352;2023-08-30T04:03:58;94040.16;;;20.77;74.33
41062;BME280;26812;42.662;23.352;2023-08-30T04:06:24;94032.03;;;20.66;74.55
41062;BME280;26812;42.662;23.352;2023-08-30T04:08:49;94029.66;;;20.68;74.50
41062;BME280;26812;42.662;23.352;2023-08-30T04:11:14;94045.31;;;20.68;75.21
41062;BME280;26812;42.662;23.352;2023-08-30T04:13:40;94030.38;;;20.76;74.83
41062;BME280;26812;42.662;23.352;2023-08-30T04:16:05;94023.75;;;20.73;74.71
41062;BME280;26812;42.662;23.352;2023-08-30T04:18:30;94033.47;;;20.85;74.69
41062;BME280;26812;42.662;23.352;2023-08-30T04:20:57;94040.13;;;20.84;74.73
41062;BME280;26812;42.662;23.352;2023-08-30T04:23:23;94047.63;;;20.73;75.18
41062;BME280;26812;42.662;23.352;2023-08-30T04:25:48;94062.28;;;21.00;74.75
41062;BME280;26812;42.662;23.352;2023-08-30T04:28:14;94063.31;;;21.17;73.85
41062;BME280;26812;42.662;23.352;2023-08-30T04:30:39;94066.75;;;21.28;73.50
41062;BME280;26812;42.662;23.352;2023-08-30T04:33:05;94078.75;;;21.45;73.29
41062;BME280;26812;42.662;23.352;2023-08-30T04:35:31;94079.50;;;21.49;72.40
41062;BME280;26812;42.662;23.352;2023-08-30T04:37:58;94073.84;;;21.22;73.32
41062;BME280;26812;42.662;23.352;2023-08-30T04:40:23;94080.50;;;21.21;73.10
41062;BME280;26812;42.662;23.352;2023-08-30T04:42:49;94103.53;;;21.31;73.74
41062;BME280;26812;42.662;23.352;2023-08-30T04:45:14;94109.34;;;21.36;73.13
41062;BME280;26812;42.662;23.352;2023-08-30T04:47:40;94116.75;;;21.39;73.34
41062;BME280;26812;42.662;23.352;2023-08-30T04:50:08;94111.81;;;21.65;72.41
41062;BME280;26812;42.662;23.352;2023-08-30T04:52:33;94101.50;;;21.80;71.48
41062;BME280;26812;42.662;23.352;2023-08-30T04:54:59;94092.06;;;21.84;70.24
41062;BME280;26812;42.662;23.352;2023-08-30T04:57:24;94109.66;;;21.87;69.06
41062;BME280;26812;42.662;23.352;2023-08-30T04:59:50;94102.09;;;21.60;70.05
41062;BME280;26812;42.662;23.352;2023-08-30T05:02:15;94096.25;;;21.58;70.69
41062;BME280;26812;42.662;23.352;2023-08-30T05:04:40;94097.25;;;21.75;69.67
41062;BME280;26812;42.662;23.352;2023-08-30T05:07:06;94097.63;;;21.77;69.57
41062;BME280;26812;42.662;23.352;2023-08-30T05:09:31;94090.88;;;21.48;70.27
41062;BME280;26812;42.662;23.352;2023-08-30T05:11:57;94107.03;;;21.73;69.90
41062;BME280;26812;42.662;23.352;2023-08-30T05:14:23;94101.69;;;21.62;69.01
41062;BME280;26812;42.662;23.352;2023-08-30T05:16:49;94103.97;;;21.67;68.91
41062;BME280;26812;42.662;23.352;2023-08-30T05:19:14;94088.63;;;21.73;68.85
41062;BME280;26812;42.662;23.352;2023-08-30T05:21:42;94102.03;;;22.01;68.49
41062;BME280;26812;42.662;23.352;2023-08-30T05:24:07;94098.72;;;21.83;68.26
41062;BME280;26812;42.662;23.352;2023-08-30T05:26:33;94103.94;;;21.74;68.12
41062;BME280;26812;42.662;23.352;2023-08-30T05:28:58;94097.28;;;21.72;68.33
41062;BME280;26812;42.662;23.352;2023-08-30T05:31:24;94116.00;;;21.80;67.98
41062;BME280;26812;42.662;23.352;2023-08-30T05:33:49;94112.56;;;21.69;68.11
41062;BME280;26812;42.662;23.352;2023-08-30T05:36:15;94110.56;;;21.77;67.94
41062;BME280;26812;42.662;23.352;2023-08-30T05:38:40;94115.75;;;22.01;67.23
41062;BME280;26812;42.662;23.352;2023-08-30T05:41:07;94114.63;;;22.33;65.87
41062;BME280;26812;42.662;23.352;2023-08-30T05:43:32;94117.16;;;22.51;65.51
41062;BME280;26812;42.662;23.352;2023-08-30T05:45:57;94100.41;;;22.11;66.71
41062;BME280;26812;42.662;23.352;2023-08-30T05:48:27;94111.94;;;22.29;66.92
41062;BME280;26812;42.662;23.352;2023-08-30T05:50:53;94097.84;;;22.58;66.91
41062;BME280;26812;42.662;23.352;2023-08-30T05:53:18;94114.47;;;22.78;64.90
41062;BME280;26812;42.662;23.352;2023-08-30T05:55:43;94114.91;;;22.73;60.02
41062;BME280;26812;42.662;23.352;2023-08-30T05:58:09;94114.09;;;22.76;60.16
41062;BME280;26812;42.662;23.352;2023-08-30T06:00:34;94102.44;;;22.68;58.64
41062;BME280;26812;42.662;23.352;2023-08-30T06:02:59;94096.28;;;22.87;nan
41062;BME280;26812;42.662;23.352;2023-08-30T06:05:26;94091.53;;;22.91;57.01
41062;BME280;26812;42.662;23.352;2023-08-30T06:07:51;94102.56;;;23.15;56.47
41062;BME280;26812;42.662;23.352;2023-08-30T06:10:18;94103.22;;;23.46;55.31
41062;BME280;26812;42.662;23.352;2023-08-30T06:12:43;94083.22;;;23.45;53.77
41062;BME280;26812;42.662;23.352;2023-08-30T06:15:08;94101.69;;;23.68;54.94
41062;BME280;26812;42.662;23.352;2023-08-30T06:17:34;94101.16;;;23.77;54.13
41062;BME280;26812;42.662;23.352;2023-08-30T06:19:59;94105.94;;;23.73;53.80
41062;BME280;26812;42.662;23.352;2023-08-30T06:22:25;94101.31;;;23.90;53.21
41062;BME280;26812;42.662;23.352;2023-08-30T06:24:50;94103.22;;;23.93;52.48
41062;BME280;26812;42.662;23.352;2023-08-30T06:27:15;94101.69;;;23.92;52.94
41062;BME280;26812;42.662;23.352;2023-08-30T06:29:41;94083.41;;;24.01;52.36
41062;BME280;26812;42.662;23.352;2023-08-30T06:32:06;94117.59;;;24.43;52.01
41062;BME280;26812;42.662;23.352;2023-08-30T06:34:32;94104.94;;;24.46;50.40
41062;BME280;26812;42.662;23.352;2023-08-30T06:36:57;94115.41;;;24.35;50.41
41062;BME280;26812;42.662;23.352;2023-08-30T06:39:23;94098.50;;;23.93;48.53
41062;BME280;26812;42.662;23.352;2023-08-30T06:41:48;94119.16;;;24.01;50.67
41062;BME280;26812;42.662;23.352;2023-08-30T06:44:13;94100.75;;;23.98;51.44
41062;BME280;26812;42.662;23.352;2023-08-30T06:46:39;94121.22;;;24.17;52.41
41062;BME280;26812;42.662;23.352;2023-08-30T06:49:05;94122.34;;;24.79;50.53
41062;BME280;26812;42.662;23.352;2023-08-30T06:51:30;94125.31;;;24.88;48.15
41062;BME280;26812;42.662;23.352;2023-08-30T06:53:56;94118.50;;;24.93;48.61
41062;BME280;26812;42.662;23.352;2023-08-30T06:56:25;94109.16;;;25.06;48.54
41062;BME280;26812;42.662;23.352;2023-08-30T06:58:51;94121.88;;;25.53;48.00
41062;BME280;26812;42.662;23.352;2023-08-30T07:01:16;94107.13;;;25.59;45.29
41062;BME280;26812;42.662;23.352;2023-08-30T07:03:42;94112.63;;;25.59;45.14
41062;BME280;26812;42.662;23.352;2023-08-30T07:06:09;94106.38;;;25.43;46.38
41062;BME280;26812;42.662;23.352;2023-08-30T07:08:34;94111.25;;;24.83;45.04
41062;BME280;26812;42.662;23.352;2023-08-30T07:10:59;94101.75;;;25.03;46.59
41062;BME280;26812;42.662;23.352;2023-08-30T07:13:40;94098.88;;;25.43;45.62
41062;BME280;26812;42.662;23.352;2023-08-30T07:16:05;94106.53;;;25.52;45.31
41062;BME280;26812;42.662;23.352;2023-08-30T07:18:30;94107.63;;;25.38;44.45
41062;BME280;26812;42.662;23.352;2023-08-30T07:20:56;94111.25;;;25.51;45.95
41062;BME280;26812;42.662;23.352;2023-08-30T07:23:21;94111.25;;;25.67;45.82
41062;BME280;26812;42.662;23.352;2023-08-30T07:25:47;94107.59;;;26.03;44.45
41062;BME280;26812;42.662;23.352;2023-08-30T07:28:12;94111.00;;;25.46;45.08
41062;BME280;26812;42.662;23.352;2023-08-30T07:30:38;94093.50;;;25.36;44.73
41062;BME280;26812;42.662;23.352;2023-08-30T07:33:04;94106.38;;;25.75;44.79
41062;BME280;26812;42.662;23.352;2023-08-30T07:35:30;94112.75;;;26.01;44.11
41062;BME280;26812;42.662;23.352;2023-08-30T07:37:55;94115.38;;;25.92;44.63
41062;BME280;26812;42.662;23.352;2023-08-30T07:40:21;94106.13;;;25.98;43.99
41062;BME280;26812;42.662;23.352;2023-08-30T07:42:51;94107.50;;;26.07;43.81
41062;BME280;26812;42.662;23.352;2023-08-30T07:45:16;94116.25;;;26.34;43.57
41062;BME280;26812;42.662;23.352;2023-08-30T07:47:42;94095.63;;;26.51;42.98
41062;BME280;26812;42.662;23.352;2023-08-30T07:50:14;94106.03;;;26.31;41.81
41062;BME280;26812;42.662;23.352;2023-08-30T07:52:39;94104.34;;;26.50;43.42
41062;BME280;26812;42.662;23.352;2023-08-30T07:55:05;94102.09;;;26.86;42.93
41062;BME280;26812;42.662;23.352;2023-08-30T07:57:30;94095.94;;;27.08;42.46
41062;BME280;26812;42.662;23.352;2023-08-30T07:59:55;94103.25;;;27.27;41.31
41062;BME280;26812;42.662;23.352;2023-08-30T08:02:21;94113.72;;;27.70;39.97
41062;BME280;26812;42.662;23.352;2023-08-30T08:04:46;94103.66;;;27.64;39.55
41062;BME280;26812;42.662;23.352;2023-08-30T08:07:11;94114.13;;;27.81;39.61
41062;BME280;26812;42.662;23.352;2023-08-30T08:09:37;94113.53;;;27.99;40.20
41062;BME280;26812;42.662;23.352;2023-08-30T08:12:03;94102.97;;;28.07;40.54
41062;BME280;26812;42.662;23.352;2023-08-30T08:14:29;94113.34;;;28.28;39.36
41062;BME280;26812;42.662;23.352;2023-08-30T08:16:54;94115.66;;;28.30;39.34
41062;BME280;26812;42.662;23.352;2023-08-30T08:19:20;94117.41;;;28.36;39.57
41062;BME280;26812;42.662;23.352;2023-08-30T08:21:46;94122.16;;;28.36;39.86
41062;BME280;26812;42.662;23.352;2023-08-30T08:24:12;94125.44;;;28.65;38.92
41062;BME280;26812;42.662;23.352;2023-08-30T08:26:37;94125.56;;;28.84;37.52
41062;BME280;26812;42.662;23.352;2023-08-30T08:29:02;94120.69;;;28.44;38.01
41062;BME280;26812;42.662;23.352;2023-08-30T08:31:29;94122.56;;;28.47;38.13
41062;BME280;26812;42.662;23.352;2023-08-30T08:34:11;94125.78;;;28.45;38.35
41062;BME280;26812;42.662;23.352;2023-08-30T08:36:37;94105.94;;;28.47;38.86
41062;BME280;26812;42.662;23.352;2023-08-30T08:39:03;94116.41;;;28.74;38.15
41062;BME280;26812;42.662;23.352;2023-08-30T08:41:35;94125.19;;;28.72;38.17
41062;BME280;26812;42.662;23.352;2023-08-30T08:44:00;94125.56;;;28.84;35.99
41062;BME280;26812;42.662;23.352;2023-08-30T08:46:28;94127.03;;;28.75;35.75
41062;BME280;26812;42.662;23.352;2023-08-30T08:48:55;94127.66;;;28.27;37.10
41062;BME280;26812;42.662;23.352;2023-08-30T08:51:22;94118.00;;;28.53;37.34
41062;BME280;26812;42.662;23.352;2023-08-30T08:53:49;94124.81;;;28.83;36.97
41062;BME280;26812;42.662;23.352;2023-08-30T08:56:15;94111.47;;;28.91;36.26
41062;BME280;26812;42.662;23.352;2023-08-30T08:58:42;94114.13;;;29.34;35.79
41062;BME280;26812;42.662;23.352;2023-08-30T09:01:09;94108.09;;;29.27;35.90
41062;BME280;26812;42.662;23.352;2023-08-30T09:03:35;94107.28;;;29.17;35.59
41062;BME280;26812;42.662;23.352;2023-08-30T09:06:02;94121.16;;;29.17;35.92
41062;BME280;26812;42.662;23.352;2023-08-30T09:08:28;94110.66;;;29.12;35.33
41062;BME280;26812;42.662;23.352;2023-08-30T09:10:53;94107.78;;;28.94;35.98
41062;BME280;26812;42.662;23.352;2023-08-30T09:13:19;94103.59;;;28.89;36.42
41062;BME280;26812;42.662;23.352;2023-08-30T09:15:46;94105.38;;;29.05;35.89
41062;BME280;26812;42.662;23.352;2023-08-30T09:18:18;94089.50;;;29.05;35.71
41062;BME280;26812;42.662;23.352;2023-08-30T09:20:44;94097.53;;;28.82;36.67
41062;BME280;26812;42.662;23.352;2023-08-30T09:23:19;94106.53;;;28.86;36.68
41062;BME280;26812;42.662;23.352;2023-08-30T09:25:54;94106.88;;;28.97;36.39
41062;BME280;26812;42.662;23.352;2023-08-30T09:28:20;94109.56;;;28.57;37.26
41062;BME280;26812;42.662;23.352;2023-08-30T09:30:54;94100.41;;;28.12;37.63
41062;BME280;26812;42.662;23.352;2023-08-30T09:33:23;94108.03;;;28.21;37.74
41062;BME280;26812;42.662;23.352;2023-08-30T09:35:49;94114.69;;;27.89;37.63
41062;BME280;26812;42.662;23.352;2023-08-30T09:38:21;94101.50;;;28.28;37.38
41062;BME280;26812;42.662;23.352;2023-08-30T09:40:47;94109.88;;;28.59;37.18
41062;BME280;26812;42.662;23.352;2023-08-30T09:43:12;94097.47;;;28.94;36.39
41062;BME280;26812;42.662;23.352;2023-08-30T09:45:38;94092.50;;;29.20;35.75
41062;BME280;26812;42.662;23.352;2023-08-30T09:48:05;94100.06;;;29.20;36.01
41062;BME280;26812;42.662;23.352;2023-08-30T09:50:34;94096.41;;;29.01;36.71
41062;BME280;26812;42.662;23.352;2023-08-30T09:53:08;94081.69;;;29.13;36.03
41062;BME280;26812;42.662;23.352;2023-08-30T09:55:37;94090.81;;;29.23;35.76
41062;BME280;26812;42.662;23.352;2023-08-30T09:58:03;94067.47;;;29.02;36.32
41062;BME280;26812;42.662;23.352;2023-08-30T10:00:33;94088.22;;;29.28;36.77
41062;BME280;26812;42.662;23.352;2023-08-30T10:02:59;94087.44;;;29.77;35.08
41062;BME280;26812;42.662;23.352;2023-08-30T10:05:26;94068.19;;;29.74;35.38
41062;BME280;26812;42.662;23.352;2023-08-30T10:07:52;94086.06;;;29.82;34.95
41062;BME280;26812;42.662;23.352;2023-08-30T10:10:25;94078.47;;;29.64;35.46
41062;BME280;26812;42.662;23.352;2023-08-30T10:12:51;94068.22;;;29.43;35.90
41062;BME280;26812;42.662;23.352;2023-08-30T10:15:20;94069.41;;;29.73;35.50
41062;BME280;26812;42.662;23.352;2023-08-30T10:17:47;94067.88;;;29.99;35.26
41062;BME280;26812;42.662;23.352;2023-08-30T10:20:15;94056.03;;;30.17;34.01
41062;BME280;26812;42.662;23.352;2023-08-30T10:22:42;94058.19;;;30.22;34.10
41062;BME280;26812;42.662;23.352;2023-08-30T10:25:11;94060.81;;;30.35;34.82
41062;BME280;26812;42.662;23.352;2023-08-30T10:27:45;94037.78;;;29.79;34.38
41062;BME280;26812;42.662;23.352;2023-08-30T10:30:12;94060.94;;;29.85;35.05
41062;BME280;26812;42.662;23.352;2023-08-30T10:32:42;94066.31;;;29.89;34.69
41062;BME280;26812;42.662;23.352;2023-08-30T10:35:11;94053.34;;;29.67;35.08
41062;BME280;26812;42.662;23.352;2023-08-30T10:37:37;94055.53;;;29.82;34.40
41062;BME280;26812;42.662;23.352;2023-08-30T10:40:03;94055.53;;;29.73;34.93
41062;BME280;26812;42.662;23.352;2023-08-30T10:42:28;94053.00;;;29.47;35.44
41062;BME280;26812;42.662;23.352;2023-08-30T10:44:59;94057.69;;;29.19;36.36
41062;BME280;26812;42.662;23.352;2023-08-30T10:47:27;94050.69;;;29.46;36.28
41062;BME280;26812;42.662;23.352;2023-08-30T10:49:57;94052.09;;;29.59;35.30
41062;BME280;26812;42.662;23.352;2023-08-30T10:52:24;94046.31;;;29.35;35.17
41062;BME280;26812;42.662;23.352;2023-08-30T10:54:50;94045.16;;;29.55;35.93
41062;BME280;26812;42.662;23.352;2023-08-30T10:57:24;94042.03;;;29.44;35.97
41062;BME280;26812;42.662;23.352;2023-08-30T11:02:38;94056.88;;;29.59;36.02
41062;BME280;26812;42.662;23.352;2023-08-30T11:05:06;94049.84;;;29.36;36.03
41062;BME280;26812;42.662;23.352;2023-08-30T11:07:32;94049.16;;;29.54;36.02
41062;BME280;26812;42.662;23.352;2023-08-30T11:09:58;94043.75;;;29.50;35.79
41062;BME280;26812;42.662;23.352;2023-08-30T11:12:23;94030.38;;;29.58;36.00
41062;BME280;26812;42.662;23.352;2023-08-30T11:14:51;94042.56;;;29.97;34.90
41062;BME280;26812;42.662;23.352;2023-08-30T11:17:17;94038.75;;;30.13;34.83
41062;BME280;26812;42.662;23.352;2023-08-30T11:19:43;94047.06;;;30.40;34.19
41062;BME280;26812;42.662;23.352;2023-08-30T11:22:09;94043.63;;;30.73;33.81
41062;BME280;26812;42.662;23.352;2023-08-30T11:24:35;94028.41;;;30.92;33.19
41062;BME280;26812;42.662;23.352;2023-08-30T11:27:00;94024.28;;;31.20;32.83
41062;BME280;26812;42.662;23.352;2023-08-30T11:29:29;94014.91;;;31.42;32.28
41062;BME280;26812;42.662;23.352;2023-08-30T11:31:54;94008.91;;;31.34;31.68
41062;BME280;26812;42.662;23.352;2023-08-30T11:34:20;94023.38;;;31.47;31.75
41062;BME280;26812;42.662;23.352;2023-08-30T11:36:50;94023.91;;;31.37;31.56
41062;BME280;26812;42.662;23.352;2023-08-30T11:39:16;94006.28;;;30.65;32.32
41062;BME280;26812;42.662;23.352;2023-08-30T11:41:42;94011.84;;;30.46;32.83
41062;BME280;26812;42.662;23.352;2023-08-30T11:44:07;93989.13;;;30.48;32.86
41062;BME280;26812;42.662;23.352;2023-08-30T11:46:33;93990.09;;;30.87;32.38
41062;BME280;26812;42.662;23.352;2023-08-30T11:48:58;94006.72;;;31.05;31.92
41062;BME280;26812;42.662;23.352;2023-08-30T11:51:24;93987.78;;;30.85;32.09
41062;BME280;26812;42.662;23.352;2023-08-30T11:53:50;93996.53;;;31.02;31.90
41062;BME280;26812;42.662;23.352;2023-08-30T11:56:16;93998.38;;;31.05;30.81
41062;BME280;26812;42.662;23.352;2023-08-30T11:58:42;93994.66;;;31.08;30.90
41062;BME280;26812;42.662;23.352;2023-08-30T12:01:09;93985.91;;;30.92;30.70
41062;BME280;26812;42.662;23.352;2023-08-30T12:03:34;93991.19;;;30.89;31.68
41062;BME280;26812;42.662;23.352;2023-08-30T12:06:01;93991.84;;;31.17;32.00
41062;BME280;26812;42.662;23.352;2023-08-30T12:08:31;93989.50;;;31.49;31.28
41062;BME280;26812;42.662;23.352;2023-08-30T12:10:57;93982.44;;;31.63;30.41
41062;BME280;26812;42.662;23.352;2023-08-30T12:15:50;93982.75;;;31.08;30.52
41062;BME280;26812;42.662;23.352;2023-08-30T12:18:15;93956.53;;;30.67;30.72
41062;BME280;26812;42.662;23.352;2023-08-30T12:20:51;93971.88;;;30.44;30.73
41062;BME280;26812;42.662;23.352;2023-08-30T12:23:24;93982.03;;;30.47;32.48
41062;BME280;26812;42.662;23.352;2023-08-30T12:26:03;93950.34;;;30.72;30.51
41062;BME280;26812;42.662;23.352;2023-08-30T12:28:30;93953.00;;;30.90;30.14
41062;BME280;26812;42.662;23.352;2023-08-30T12:30:56;93964.69;;;31.03;28.60
41062;BME280;26812;42.662;23.352;2023-08-30T12:33:22;93966.47;;;31.25;28.69
41062;BME280;26812;42.662;23.352;2023-08-30T12:35:48;93963.84;;;31.21;27.41
41062;BME280;26812;42.662;23.352;2023-08-30T12:38:13;93955.63;;;31.50;27.33
41062;BME280;26812;42.662;23.352;2023-08-30T12:40:46;93966.13;;;31.32;27.54
41062;BME280;26812;42.662;23.352;2023-08-30T12:43:13;93954.91;;;31.17;27.91
41062;BME280;26812;42.662;23.352;2023-08-30T12:45:42;93945.63;;;31.20;28.09
41062;BME280;26812;42.662;23.352;2023-08-30T12:48:08;93934.63;;;31.26;27.51
41062;BME280;26812;42.662;23.352;2023-08-30T12:50:37;93940.22;;;31.40;26.56
41062;BME280;26812;42.662;23.352;2023-08-30T12:53:04;93946.03;;;31.51;27.23
41062;BME280;26812;42.662;23.352;2023-08-30T12:55:29;93941.56;;;31.69;26.04
41062;BME280;26812;42.662;23.352;2023-08-30T12:57:55;93933.41;;;31.41;27.39
41062;BME280;26812;42.662;23.352;2023-08-30T13:00:20;93926.00;;;31.62;26.30
41062;BME280;26812;42.662;23.352;2023-08-30T13:02:46;93922.59;;;31.43;26.46
41062;BME280;26812;42.662;23.352;2023-08-30T13:05:11;93922.25;;;31.65;27.14